Time;durP1;ratioP1;P1;durP2;ratioP2;P2;SDS_P1;SDS_P2;PMS_P1;PMS_P2;Temp;Humidity;BMP_temperature;BMP_pressure;BME280_temperature;BME280_humidity;BME280_pressure;Samples;Min_cycle;Max_cycle;Signal;HPM_P1;HPM_P2
2023/02/04 00:02:23;;;;;;;12.65;2.00;;;;;;;;;;4920004;28;20055;-69
2023/02/04 00:04:50;;;;;;;10.27;2.17;;;;;;;;;;4933157;28;20051;-69
2023/02/04 00:07:19;;;;;;;12.38;1.70;;;;;;;;;;4953024;28;20043;-71
2023/02/04 00:09:50;;;;;;;11.02;2.28;;;;;;;;;;4941252;28;20063;-71
2023/02/04 00:14:46;;;;;;;8.27;2.10;;;;;;;;;;4840519;29;20052;-70
2023/02/04 00:17:15;;;;;;;10.93;1.73;;;;;;;;;;4883243;28;20053;-72
2023/02/04 00:19:42;;;;;;;7.22;1.85;;;;;;;;;;4834273;29;20136;-70
2023/02/04 00:22:11;;;;;;;8.45;1.67;;;;;;;;;;4837791;29;20176;-70
2023/02/04 00:24:47;;;;;;;7.22;1.80;;;;;;;;;;4890950;28;20205;-69
2023/02/04 00:27:15;;;;;;;9.85;2.38;;;;;;;;;;4890474;28;20490;-72
2023/02/04 00:29:42;;;;;;;5.78;1.70;;;;;;;;;;4841584;28;20057;-69
2023/02/04 00:32:14;;;;;;;5.07;1.15;;;;;;;;;;4857062;29;20059;-70
2023/02/04 00:34:42;;;;;;;6.50;1.50;;;;;;;;;;4858884;29;20218;-72
2023/02/04 00:37:09;;;;;;;9.40;1.60;;;;;;;;;;4882581;29;20147;-70
2023/02/04 00:39:40;;;;;;;7.00;1.70;;;;;;;;;;4875976;29;20057;-72
2023/02/04 00:42:29;;;;;;;8.95;1.60;;;;;;;;;;4859769;29;20053;-72
2023/02/04 00:44:56;;;;;;;8.38;1.60;;;;;;;;;;4820899;29;20202;-71
2023/02/04 00:47:25;;;;;;;4.72;1.20;;;;;;;;;;4834569;29;20132;-71
2023/02/04 00:49:51;;;;;;;7.45;1.80;;;;;;;;;;4891584;28;20080;-71
2023/02/04 00:52:24;;;;;;;6.63;1.77;;;;;;;;;;4901696;29;20102;-69
2023/02/04 00:54:53;;;;;;;6.25;1.48;;;;;;;;;;4898134;28;20054;-70
2023/02/04 00:57:23;;;;;;;8.98;2.03;;;;;;;;;;4910661;28;20039;-71
2023/02/04 00:59:52;;;;;;;5.78;1.65;;;;;;;;;;4919649;28;20051;-70
2023/02/04 01:02:19;;;;;;;5.90;1.50;;;;;;;;;;4955489;28;20088;-70
2023/02/04 01:04:51;;;;;;;7.93;1.60;;;;;;;;;;4912076;28;20101;-71
2023/02/04 01:07:18;;;;;;;8.65;1.52;;;;;;;;;;4918149;28;20125;-70
2023/02/04 01:09:47;;;;;;;5.57;1.60;;;;;;;;;;4914034;28;20051;-70
2023/02/04 01:12:17;;;;;;;7.30;1.48;;;;;;;;;;4928901;28;20047;-70
2023/02/04 01:14:48;;;;;;;7.68;1.50;;;;;;;;;;4960721;28;20042;-68
2023/02/04 01:17:17;;;;;;;3.88;1.35;;;;;;;;;;4913842;28;20051;-68
2023/02/04 01:19:45;;;;;;;;;;;;;;;;;;4923471;28;20050;-69
2023/02/04 01:22:12;;;;;;;;;;;;;;;;;;4941184;28;20039;-69
2023/02/04 01:24:44;;;;;;;6.47;1.30;;;;;;;;;;4961870;28;20119;-69
2023/02/04 01:27:14;;;;;;;5.32;1.60;;;;;;;;;;4922568;28;20059;-70
2023/02/04 01:29:43;;;;;;;8.05;1.38;;;;;;;;;;4936692;28;20110;-69
2023/02/04 01:32:10;;;;;;;6.82;1.63;;;;;;;;;;4944665;28;20059;-69
2023/02/04 01:34:37;;;;;;;7.90;1.30;;;;;;;;;;4926859;28;20055;-70
2023/02/04 01:37:04;;;;;;;7.97;1.23;;;;;;;;;;4914152;28;20051;-70
2023/02/04 01:39:32;;;;;;;7.68;1.95;;;;;;;;;;4897070;28;20047;-71
2023/02/04 01:42:01;;;;;;;6.25;1.75;;;;;;;;;;4919147;28;20079;-68
2023/02/04 01:44:28;;;;;;;6.10;1.52;;;;;;;;;;4932311;28;20054;-69
2023/02/04 01:46:55;;;;;;;7.95;1.30;;;;;;;;;;4924778;28;20059;-71
2023/02/04 01:49:22;;;;;;;3.95;1.25;;;;;;;;;;4927878;28;20050;-70
2023/02/04 01:51:52;;;;;;;7.05;1.30;;;;;;;;;;4913001;28;20110;-70
2023/02/04 01:54:24;;;;;;;4.35;1.15;;;;;;;;;;4913782;28;20077;-70
2023/02/04 01:56:54;;;;;;;5.00;1.33;;;;;;;;;;4904192;28;20157;-68
2023/02/04 01:59:33;;;;;;;5.90;1.42;;;;;;;;;;4902904;28;20055;-69
2023/02/04 02:02:02;;;;;;;8.77;1.30;;;;;;;;;;4949732;28;20054;-71
2023/02/04 02:04:33;;;;;;;3.53;1.10;;;;;;;;;;4947455;28;20050;-70
2023/02/04 02:07:02;;;;;;;5.80;1.60;;;;;;;;;;4930463;28;20054;-71
2023/02/04 02:09:29;;;;;;;8.93;1.38;;;;;;;;;;4920066;28;20063;-71
2023/02/04 02:12:03;;;;;;;5.50;1.45;;;;;;;;;;4959365;28;20067;-71
2023/02/04 02:14:34;;;;;;;5.43;1.42;;;;;;;;;;4922058;28;20066;-70
2023/02/04 02:17:02;;;;;;;4.05;1.30;;;;;;;;;;4900437;28;20113;-70
2023/02/04 02:19:32;;;;;;;12.20;1.60;;;;;;;;;;4901347;28;20059;-70
2023/02/04 02:22:03;;;;;;;3.25;1.10;;;;;;;;;;4921337;28;20058;-69
2023/02/04 02:24:33;;;;;;;5.35;1.63;;;;;;;;;;4878310;29;20203;-70
2023/02/04 02:27:02;;;;;;;11.23;1.73;;;;;;;;;;4904876;28;20059;-68
2023/02/04 02:29:28;;;;;;;;;;;;;;;;;;4938544;28;20116;-70
2023/02/04 02:31:57;;;;;;;4.45;1.13;;;;;;;;;;4925743;28;19929;-69
2023/02/04 02:37:07;;;;;;;6.03;1.10;;;;;;;;;;4891090;28;20056;-68
2023/02/04 02:39:39;;;;;;;4.65;1.25;;;;;;;;;;4946016;28;20055;-68
2023/02/04 02:42:06;;;;;;;5.75;1.27;;;;;;;;;;4944036;28;20662;-70
2023/02/04 02:44:33;;;;;;;2.95;1.00;;;;;;;;;;4947083;28;20063;-68
2023/02/04 02:47:00;;;;;;;6.70;0.98;;;;;;;;;;4926762;28;20105;-69
2023/02/04 02:49:28;;;;;;;9.68;1.60;;;;;;;;;;4929614;28;20055;-70
2023/02/04 02:51:57;;;;;;;4.60;1.33;;;;;;;;;;4925798;28;20075;-69
2023/02/04 02:54:27;;;;;;;8.35;1.30;;;;;;;;;;4931189;28;20165;-69
2023/02/04 02:57:00;;;;;;;5.22;1.20;;;;;;;;;;4961175;28;20051;-70
2023/02/04 02:59:28;;;;;;;3.35;0.93;;;;;;;;;;4929319;28;20054;-70
2023/02/04 03:01:56;;;;;;;7.38;1.40;;;;;;;;;;4927917;28;20054;-68
2023/02/04 03:04:24;;;;;;;5.07;1.25;;;;;;;;;;4892234;28;20063;-71
2023/02/04 03:06:51;;;;;;;10.57;1.47;;;;;;;;;;4924262;28;20080;-68
2023/02/04 03:09:19;;;;;;;6.95;1.10;;;;;;;;;;4917040;28;20062;-68
2023/02/04 03:11:48;;;;;;;5.22;1.13;;;;;;;;;;4936556;28;20059;-68
2023/02/04 03:14:18;;;;;;;8.60;1.38;;;;;;;;;;4888000;29;20145;-69
2023/02/04 03:16:45;;;;;;;9.52;1.33;;;;;;;;;;4920068;28;20055;-68
2023/02/04 03:19:13;;;;;;;6.15;1.13;;;;;;;;;;4922335;28;20073;-68
2023/02/04 03:21:41;;;;;;;7.25;1.25;;;;;;;;;;4946967;28;20051;-70
2023/02/04 03:24:11;;;;;;;;;;;;;;;;;;4927909;28;20090;-69
2023/02/04 03:26:38;;;;;;;4.40;1.05;;;;;;;;;;4949052;28;19965;-70
2023/02/04 03:29:12;;;;;;;5.15;1.13;;;;;;;;;;4946534;28;20063;-70
2023/02/04 03:31:40;;;;;;;7.53;1.60;;;;;;;;;;4945234;28;20059;-70
2023/02/04 03:34:07;;;;;;;5.35;1.27;;;;;;;;;;4942685;28;20051;-69
2023/02/04 03:36:39;;;;;;;7.68;1.60;;;;;;;;;;4951334;28;20069;-68
2023/02/04 03:39:06;;;;;;;5.05;1.25;;;;;;;;;;4946161;28;20142;-70
2023/02/04 03:41:33;;;;;;;7.57;1.55;;;;;;;;;;4948439;28;20050;-69
2023/02/04 03:44:06;;;;;;;5.22;1.50;;;;;;;;;;4931372;28;20054;-68
2023/02/04 03:46:33;;;;;;;8.15;1.20;;;;;;;;;;4950003;28;20049;-68
2023/02/04 03:49:01;;;;;;;5.88;1.70;;;;;;;;;;4917465;28;20070;-71
2023/02/04 03:51:30;;;;;;;4.68;1.10;;;;;;;;;;4978313;28;20058;-71
2023/02/04 03:54:00;;;;;;;7.45;1.17;;;;;;;;;;4907942;28;20120;-69
2023/02/04 03:56:27;;;;;;;7.38;1.70;;;;;;;;;;4932672;28;20058;-71
2023/02/04 03:58:53;;;;;;;7.40;1.55;;;;;;;;;;4935814;28;20066;-70
2023/02/04 04:01:31;;;;;;;6.35;1.40;;;;;;;;;;4927103;28;20059;-70
2023/02/04 04:03:57;;;;;;;6.93;1.00;;;;;;;;;;4898750;28;20137;-71
2023/02/04 04:06:28;;;;;;;8.00;1.35;;;;;;;;;;4915432;29;20138;-71
2023/02/04 04:08:55;;;;;;;6.45;1.02;;;;;;;;;;4919868;29;20150;-68
2023/02/04 04:11:21;;;;;;;5.40;1.27;;;;;;;;;;4942090;28;20047;-71
2023/02/04 04:13:51;;;;;;;9.52;1.95;;;;;;;;;;4911971;28;20055;-69
2023/02/04 04:16:19;;;;;;;10.65;1.38;;;;;;;;;;4926911;28;20062;-68
2023/02/04 04:18:47;;;;;;;8.68;1.45;;;;;;;;;;4920419;28;20046;-70
2023/02/04 04:21:26;;;;;;;8.38;1.58;;;;;;;;;;4918751;28;20060;-69
2023/02/04 04:24:07;;;;;;;7.80;1.13;;;;;;;;;;4913986;28;20059;-69
2023/02/04 04:26:36;;;;;;;11.43;1.40;;;;;;;;;;4908386;28;20059;-69
2023/02/04 04:29:11;;;;;;;9.23;1.52;;;;;;;;;;4943656;28;20053;-71
2023/02/04 04:31:43;;;;;;;7.43;1.33;;;;;;;;;;4934602;28;20057;-71
2023/02/04 04:34:20;;;;;;;5.38;1.00;;;;;;;;;;4937682;28;20207;-69
2023/02/04 04:36:49;;;;;;;6.72;1.52;;;;;;;;;;4946926;28;20070;-70
2023/02/04 04:39:18;;;;;;;5.85;1.30;;;;;;;;;;4942640;28;20123;-69
2023/02/04 04:41:44;;;;;;;7.72;1.27;;;;;;;;;;4951830;28;20054;-71
2023/02/04 04:44:13;;;;;;;3.80;0.90;;;;;;;;;;4899649;28;20180;-70
2023/02/04 04:46:41;;;;;;;10.25;1.58;;;;;;;;;;4959468;28;20061;-69
2023/02/04 04:49:08;;;;;;;4.63;1.15;;;;;;;;;;4939427;28;20082;-70
2023/02/04 04:51:37;;;;;;;5.28;1.00;;;;;;;;;;4958136;28;20050;-69
2023/02/04 04:54:04;;;;;;;4.18;1.00;;;;;;;;;;4895037;28;20065;-71
2023/02/04 04:56:35;;;;;;;7.20;1.75;;;;;;;;;;4923507;28;20074;-69
2023/02/04 04:59:04;;;;;;;6.18;1.13;;;;;;;;;;4889253;28;20095;-68
2023/02/04 05:01:38;;;;;;;9.52;1.13;;;;;;;;;;4892423;28;20067;-71
2023/02/04 05:04:12;;;;;;;5.03;1.55;;;;;;;;;;4897955;28;20055;-69
2023/02/04 05:06:39;;;;;;;5.43;1.10;;;;;;;;;;4953351;28;20058;-69
2023/02/04 05:09:09;;;;;;;5.70;1.48;;;;;;;;;;4934329;28;20137;-69
2023/02/04 05:11:49;;;;;;;6.75;1.45;;;;;;;;;;4915232;28;20106;-70
2023/02/04 05:14:16;;;;;;;9.00;1.52;;;;;;;;;;4911178;28;20099;-69
2023/02/04 05:16:43;;;;;;;5.63;1.48;;;;;;;;;;4901716;28;20138;-68
2023/02/04 05:19:17;;;;;;;4.15;1.13;;;;;;;;;;4910280;28;20055;-71
2023/02/04 05:21:44;;;;;;;8.48;1.23;;;;;;;;;;4891672;28;20047;-70
2023/02/04 05:24:14;;;;;;;5.68;1.33;;;;;;;;;;4857472;29;20454;-69
2023/02/04 05:26:41;;;;;;;6.32;1.20;;;;;;;;;;4881801;28;20063;-70
2023/02/04 05:29:10;;;;;;;6.93;1.58;;;;;;;;;;4916590;28;20126;-70
2023/02/04 05:31:36;;;;;;;4.80;1.42;;;;;;;;;;4916635;28;20089;-68
2023/02/04 05:34:03;;;;;;;9.15;1.10;;;;;;;;;;4884088;28;20055;-68
2023/02/04 05:36:32;;;;;;;6.85;1.20;;;;;;;;;;4924907;28;20078;-69
2023/02/04 05:38:59;;;;;;;3.90;0.95;;;;;;;;;;4929029;28;20058;-70
2023/02/04 05:41:27;;;;;;;8.80;1.33;;;;;;;;;;4902536;28;20059;-71
2023/02/04 05:43:54;;;;;;;7.50;1.43;;;;;;;;;;4870237;28;20056;-71
2023/02/04 05:46:26;;;;;;;4.38;1.40;;;;;;;;;;4933464;28;20315;-71
2023/02/04 05:48:53;;;;;;;6.65;1.33;;;;;;;;;;4946766;28;20075;-70
2023/02/04 05:51:21;;;;;;;9.73;1.25;;;;;;;;;;4893449;28;20138;-70
2023/02/04 05:53:48;;;;;;;10.20;1.85;;;;;;;;;;4926652;28;20162;-69
2023/02/04 05:56:15;;;;;;;6.55;1.30;;;;;;;;;;4953036;28;20122;-69
2023/02/04 05:58:45;;;;;;;10.30;1.52;;;;;;;;;;4940074;28;20057;-69
2023/02/04 06:01:11;;;;;;;5.28;1.17;;;;;;;;;;4935640;28;20152;-71
2023/02/04 06:03:41;;;;;;;7.35;1.25;;;;;;;;;;4913423;28;20056;-70
2023/02/04 06:06:10;;;;;;;6.28;1.60;;;;;;;;;;4870822;28;20061;-69
2023/02/04 06:08:37;;;;;;;8.27;1.20;;;;;;;;;;4933954;28;20053;-69
2023/02/04 06:11:06;;;;;;;8.32;2.10;;;;;;;;;;4935718;28;20065;-71
2023/02/04 06:13:35;;;;;;;5.38;1.20;;;;;;;;;;4933439;28;20060;-71
2023/02/04 06:16:02;;;;;;;5.63;1.20;;;;;;;;;;4920131;28;20136;-71
2023/02/04 06:18:28;;;;;;;8.02;1.20;;;;;;;;;;4948154;28;20054;-69
2023/02/04 06:21:03;;;;;;;6.07;1.65;;;;;;;;;;4955286;28;20160;-69
2023/02/04 06:23:30;;;;;;;7.47;1.40;;;;;;;;;;4912370;28;21208;-69
2023/02/04 06:26:00;;;;;;;7.13;1.70;;;;;;;;;;4906949;28;20054;-71
2023/02/04 06:28:27;;;;;;;6.05;1.30;;;;;;;;;;4922820;28;20062;-71
2023/02/04 06:30:54;;;;;;;8.20;1.35;;;;;;;;;;4955133;28;20140;-71
2023/02/04 06:33:25;;;;;;;7.40;1.35;;;;;;;;;;4916891;28;20058;-69
2023/02/04 06:35:52;;;;;;;4.20;1.17;;;;;;;;;;4889939;28;20087;-71
2023/02/04 06:38:24;;;;;;;3.67;1.15;;;;;;;;;;4903943;28;20051;-70
2023/02/04 06:40:57;;;;;;;6.93;1.20;;;;;;;;;;4870143;29;20645;-71
2023/02/04 06:43:26;;;;;;;5.35;1.20;;;;;;;;;;4878813;28;20048;-70
2023/02/04 06:46:03;;;;;;;3.92;1.30;;;;;;;;;;4868169;29;20068;-70
2023/02/04 06:48:30;;;;;;;4.75;1.50;;;;;;;;;;4924757;28;20082;-71
2023/02/04 06:50:59;;;;;;;5.45;1.30;;;;;;;;;;4925163;28;20166;-71
2023/02/04 06:53:51;;;;;;;9.45;1.92;;;;;;;;;;4910497;28;20066;-68
2023/02/04 06:56:18;;;;;;;5.57;1.40;;;;;;;;;;4918673;28;20519;-68
2023/02/04 06:58:49;;;;;;;7.80;1.42;;;;;;;;;;4919408;28;20062;-70
2023/02/04 07:01:18;;;;;;;5.90;1.40;;;;;;;;;;4931372;28;20073;-70
2023/02/04 07:03:44;;;;;;;3.75;1.08;;;;;;;;;;4959306;28;20050;-68
2023/02/04 07:06:13;;;;;;;5.65;1.30;;;;;;;;;;4926757;28;20054;-68
2023/02/04 07:08:48;;;;;;;7.35;1.27;;;;;;;;;;4929639;28;20063;-68
2023/02/04 07:11:16;;;;;;;4.97;1.08;;;;;;;;;;4904655;28;20412;-70
2023/02/04 07:13:44;;;;;;;8.90;1.27;;;;;;;;;;4910908;28;20065;-68
2023/02/04 07:16:13;;;;;;;6.78;1.45;;;;;;;;;;4864505;28;20055;-70
2023/02/04 07:18:42;;;;;;;7.97;1.52;;;;;;;;;;4894296;28;20050;-72
2023/02/04 07:21:12;;;;;;;4.97;1.40;;;;;;;;;;4914839;28;20077;-67
2023/02/04 07:23:41;;;;;;;4.30;1.20;;;;;;;;;;4900261;28;20050;-70
2023/02/04 07:26:09;;;;;;;7.55;1.40;;;;;;;;;;4914060;28;20051;-68
2023/02/04 07:28:43;;;;;;;5.55;1.42;;;;;;;;;;4922701;28;20058;-70
2023/02/04 07:31:14;;;;;;;4.78;1.48;;;;;;;;;;4943431;28;20069;-69
2023/02/04 07:33:43;;;;;;;3.13;1.23;;;;;;;;;;4951125;28;20059;-70
2023/02/04 07:36:11;;;;;;;6.60;1.50;;;;;;;;;;4900369;28;20057;-69
2023/02/04 07:38:43;;;;;;;5.53;1.35;;;;;;;;;;4947668;28;20062;-72
2023/02/04 07:41:13;;;;;;;4.88;1.20;;;;;;;;;;4932901;28;20122;-73
2023/02/04 07:43:50;;;;;;;4.25;1.20;;;;;;;;;;4935307;28;20055;-73
2023/02/04 08:02:04;;;;;;;5.47;1.35;;;;;;;;;;5098902;27;20441;-71
2023/02/04 08:04:38;;;;;;;4.47;1.00;;;;;;;;;;4982595;28;20091;-71
2023/02/04 08:07:14;;;;;;;4.97;1.40;;;;;;;;;;4979348;28;20473;-73
2023/02/04 08:28:55;;;;;;;7.45;1.10;;;;;;;;;;6094131;22;1454390;-73
2023/02/04 08:31:25;;;;;;;4.07;1.15;;;;;;;;;;6015595;23;20030;-73
2023/02/04 08:34:06;;;;;;;7.60;1.27;;;;;;;;;;6014266;23;20090;-71
2023/02/04 08:42:39;;;;;;;5.97;1.25;;;;;;;;;;4998577;28;20045;-73
2023/02/04 08:48:09;;;;;;;3.05;1.08;;;;;;;;;;5013764;27;20542;-73
2023/02/04 08:50:48;;;;;;;6.95;1.45;;;;;;;;;;4925967;28;20047;-72
2023/02/04 08:53:22;;;;;;;7.95;1.80;;;;;;;;;;4919840;28;20038;-72
2023/02/04 09:11:49;;;;;;;3.17;1.42;;;;;;;;;;6150643;22;2899225;-73
2023/02/04 09:20:30;;;;;;;5.60;1.50;;;;;;;;;;5016352;27;20472;-73
2023/02/04 09:23:14;;;;;;;6.18;1.67;;;;;;;;;;4910168;28;20246;-71
2023/02/04 09:31:50;;;;;;;;;;;;;;;;;;;;;
2023/02/04 09:34:42;;;;;;;10.38;1.88;;;;;;;;;;4889537;29;20082;-70
2023/02/04 09:40:22;;;;;;;9.10;2.10;;;;;;;;;;4971848;28;20422;-74
2023/02/04 09:43:40;;;;;;;7.07;1.93;;;;;;;;;;4868291;29;20060;-73
2023/02/04 09:49:23;;;;;;;8.30;1.98;;;;;;;;;;5043013;27;20523;-72
2023/02/04 09:52:01;;;;;;;7.20;1.67;;;;;;;;;;5005695;28;20063;-75
2023/02/04 09:54:48;;;;;;;7.28;2.08;;;;;;;;;;4958650;28;20065;-73
2023/02/04 09:57:19;;;;;;;7.82;1.65;;;;;;;;;;4966197;28;20057;-68
2023/02/04 09:59:53;;;;;;;6.30;1.80;;;;;;;;;;5018590;28;20052;-75
2023/02/04 10:05:26;;;;;;;8.85;2.20;;;;;;;;;;4912971;28;20057;-73
2023/02/04 10:07:58;;;;;;;10.57;2.33;;;;;;;;;;4942529;28;20060;-78
2023/02/04 10:10:29;;;;;;;7.25;1.90;;;;;;;;;;5009901;28;20104;-73
2023/02/04 10:13:31;;;;;;;9.57;2.15;;;;;;;;;;4938764;28;20070;-74
2023/02/04 10:22:00;;;;;;;5.47;1.73;;;;;;;;;;4900634;28;20621;-69
2023/02/04 10:24:34;;;;;;;12.40;2.50;;;;;;;;;;4897833;28;20058;-71
2023/02/04 10:40:49;;;;;;;7.75;2.00;;;;;;;;;;6045681;21;4068208;-72
2023/02/04 10:48:53;;;;;;;8.23;2.08;;;;;;;;;;4921643;27;20477;-73
2023/02/04 11:10:01;;;;;;;;;;;;;;;;;;;;;
2023/02/04 11:13:07;;;;;;;15.23;2.53;;;;;;;;;;6049614;23;20021;-77
2023/02/04 11:23:41;;;;;;;13.02;2.58;;;;;;;;;;5017969;27;20932;-72
2023/02/04 11:26:17;;;;;;;11.00;2.58;;;;;;;;;;5003393;28;20044;-72
2023/02/04 11:31:44;;;;;;;10.57;2.25;;;;;;;;;;4834384;29;20048;-73
2023/02/04 11:50:50;;;;;;;9.45;2.45;;;;;;;;;;5546545;22;13100438;-76
2023/02/04 12:15:55;;;;;;;17.65;2.53;;;;;;;;;;4914073;28;20219;-78
2023/02/04 12:34:17;;;;;;;14.05;3.40;;;;;;;;;;5817732;22;8097985;-76
2023/02/04 12:52:58;;;;;;;8.27;1.85;;;;;;;;;;5996750;22;2102105;-74
2023/02/04 13:12:21;;;;;;;9.88;2.15;;;;;;;;;;5006918;28;20430;-75
2023/02/04 13:17:47;;;;;;;12.80;2.40;;;;;;;;;;5002483;28;20048;-75
2023/02/04 15:52:58;;;;;;;7.13;1.60;;;;;;;;;;6017558;22;15131438;-75
2023/02/04 15:55:47;;;;;;;7.50;1.50;;;;;;;;;;6036231;23;20276;-77
2023/02/04 15:58:33;;;;;;;7.88;2.10;;;;;;;;;;5922452;24;20091;-74
2023/02/04 16:40:36;;;;;;;5.80;1.90;;;;;;;;;;6154813;22;3607936;-75
2023/02/04 16:43:13;;;;;;;7.88;1.83;;;;;;;;;;6006815;23;20125;-74
2023/02/04 16:54:21;;;;;;;9.68;1.73;;;;;;;;;;4961288;27;20498;-74
2023/02/04 16:57:15;;;;;;;;;;;;;;;;;;;;;
2023/02/04 16:59:45;;;;;;;6.53;1.58;;;;;;;;;;4830755;29;20155;-75
2023/02/04 17:02:13;;;;;;;7.22;2.00;;;;;;;;;;4847861;29;20084;-74
2023/02/04 17:04:42;;;;;;;10.15;1.83;;;;;;;;;;4820662;29;20058;-73
2023/02/04 17:07:13;;;;;;;6.20;1.58;;;;;;;;;;4842387;29;20061;-72
2023/02/04 17:15:13;;;;;;;8.43;2.15;;;;;;;;;;5080803;27;20552;-71
2023/02/04 17:17:41;;;;;;;8.80;2.05;;;;;;;;;;5043583;28;20057;-70
2023/02/04 17:20:09;;;;;;;9.52;2.30;;;;;;;;;;4989277;28;20044;-72
2023/02/04 17:22:43;;;;;;;13.82;2.58;;;;;;;;;;4991922;28;20040;-71
2023/02/04 17:25:10;;;;;;;9.75;2.03;;;;;;;;;;5019901;28;20142;-71
2023/02/04 17:27:44;;;;;;;10.00;2.08;;;;;;;;;;5032634;28;20056;-70
2023/02/04 17:30:13;;;;;;;7.97;2.42;;;;;;;;;;5007781;28;20064;-71
2023/02/04 17:32:42;;;;;;;8.65;2.33;;;;;;;;;;4913538;28;20232;-71
2023/02/04 17:35:19;;;;;;;10.38;2.35;;;;;;;;;;4951431;28;20057;-72
2023/02/04 17:37:47;;;;;;;7.43;2.60;;;;;;;;;;4936286;28;20089;-71
2023/02/04 17:40:21;;;;;;;7.32;1.98;;;;;;;;;;4888445;28;20117;-71
2023/02/04 17:42:50;;;;;;;8.27;2.08;;;;;;;;;;4951264;28;20065;-72
2023/02/04 17:45:25;;;;;;;15.45;2.53;;;;;;;;;;4914011;28;20066;-71
2023/02/04 17:47:54;;;;;;;10.40;2.45;;;;;;;;;;4935126;28;20096;-71
2023/02/04 17:50:21;;;;;;;16.00;3.15;;;;;;;;;;4967751;28;20073;-71
2023/02/04 17:52:48;;;;;;;12.15;2.67;;;;;;;;;;4946837;28;20069;-72
2023/02/04 17:55:27;;;;;;;;;;;;;;;;;;;;;
2023/02/04 18:03:23;;;;;;;10.93;2.78;;;;;;;;;;5037013;27;20134;-74
2023/02/04 18:05:57;;;;;;;9.77;3.00;;;;;;;;;;4980800;28;20561;-74
2023/02/04 18:08:36;;;;;;;9.27;2.60;;;;;;;;;;5004069;28;20057;-74
2023/02/04 18:14:01;;;;;;;11.52;3.15;;;;;;;;;;5036684;27;20484;-72
2023/02/04 18:16:36;;;;;;;12.68;3.25;;;;;;;;;;4902283;28;20499;-73
2023/02/04 18:19:10;;;;;;;9.25;2.80;;;;;;;;;;4935630;28;20054;-72
2023/02/04 18:24:13;;;;;;;15.30;3.17;;;;;;;;;;4854039;28;20049;-71
2023/02/04 18:26:43;;;;;;;11.05;2.75;;;;;;;;;;4922840;28;20250;-72
2023/02/04 18:29:17;;;;;;;16.90;2.97;;;;;;;;;;4949005;28;20056;-73
2023/02/04 18:31:51;;;;;;;13.38;2.80;;;;;;;;;;4920081;28;20066;-70
2023/02/04 18:34:22;;;;;;;9.30;2.50;;;;;;;;;;4971304;28;20080;-71
2023/02/04 18:36:59;;;;;;;10.60;2.95;;;;;;;;;;4964348;28;20061;-71
2023/02/04 18:39:27;;;;;;;;;;;;;;;;;;4941030;28;20290;-72
2023/02/04 18:41:59;;;;;;;11.93;2.80;;;;;;;;;;4907569;28;20099;-71
2023/02/04 18:44:37;;;;;;;12.52;2.53;;;;;;;;;;4928083;28;20050;-71
2023/02/04 18:47:28;;;;;;;8.23;2.70;;;;;;;;;;4939832;28;20057;-73
2023/02/04 18:50:00;;;;;;;15.02;3.53;;;;;;;;;;4932493;28;20054;-70
2023/02/04 18:52:35;;;;;;;14.52;3.13;;;;;;;;;;4873857;28;20072;-71
2023/02/04 18:55:11;;;;;;;8.52;2.85;;;;;;;;;;4862226;29;20056;-71
2023/02/04 18:57:40;;;;;;;12.60;3.10;;;;;;;;;;4899264;28;20052;-70
2023/02/04 19:00:31;;;;;;;20.25;3.53;;;;;;;;;;4935730;28;20058;-71
2023/02/04 19:26:38;;;;;;;13.18;3.72;;;;;;;;;;5026871;27;20505;-74
2023/02/04 19:29:20;;;;;;;12.82;3.60;;;;;;;;;;4950525;28;20081;-74
2023/02/04 19:31:50;;;;;;;14.15;3.65;;;;;;;;;;4937256;28;20054;-72
2023/02/04 19:34:24;;;;;;;15.55;3.42;;;;;;;;;;4950878;28;20049;-75
2023/02/04 19:36:56;;;;;;;15.05;3.70;;;;;;;;;;4939279;28;20122;-75
2023/02/04 19:39:29;;;;;;;12.07;3.65;;;;;;;;;;4929245;28;20251;-74
2023/02/04 19:42:06;;;;;;;12.07;3.55;;;;;;;;;;4871797;28;20056;-72
2023/02/04 19:44:44;;;;;;;11.88;4.10;;;;;;;;;;4854746;28;20088;-75
2023/02/04 19:49:54;;;;;;;12.70;4.10;;;;;;;;;;4822203;29;20135;-72
2023/02/04 19:55:31;;;;;;;15.07;4.40;;;;;;;;;;5034972;27;20503;-72
2023/02/04 19:58:06;;;;;;;11.32;3.47;;;;;;;;;;5000100;28;20064;-74
2023/02/04 20:00:45;;;;;;;13.85;3.75;;;;;;;;;;4956561;28;20056;-73
2023/02/04 20:03:38;;;;;;;13.65;4.00;;;;;;;;;;4923149;28;20050;-73
2023/02/04 20:06:26;;;;;;;14.23;4.07;;;;;;;;;;4897752;28;20095;-75
2023/02/04 20:16:56;;;;;;;12.15;3.83;;;;;;;;;;5009848;27;20487;-74
2023/02/04 20:19:40;;;;;;;10.60;3.45;;;;;;;;;;4937221;28;20048;-71
2023/02/04 20:25:11;;;;;;;12.13;4.20;;;;;;;;;;4967509;27;20491;-72
2023/02/04 20:27:53;;;;;;;13.15;4.03;;;;;;;;;;4894161;28;20039;-76
2023/02/04 20:30:23;;;;;;;10.68;3.90;;;;;;;;;;4894806;28;20335;-73
2023/02/04 20:41:11;;;;;;;;;;;;;;;;;;;;;
2023/02/04 20:51:47;;;;;;;14.23;4.68;;;;;;;;;;5006672;27;20434;-76
2023/02/04 21:07:56;;;;;;;17.30;5.32;;;;;;;;;;5060188;27;20515;-72
2023/02/04 21:10:51;;;;;;;16.77;4.60;;;;;;;;;;4976409;28;20193;-71
2023/02/04 21:56:43;;;;;;;12.48;4.72;;;;;;;;;;4992621;27;20500;-73
2023/02/04 21:59:19;;;;;;;12.68;4.85;;;;;;;;;;4903600;28;20053;-76
2023/02/04 22:07:20;;;;;;;11.00;4.40;;;;;;;;;;5032488;27;20381;-80
2023/02/04 22:18:52;;;;;;;;;;;;;;;;;;;;;
2023/02/04 22:21:21;;;;;;;15.40;4.80;;;;;;;;;;4961293;28;20409;-74
2023/02/04 22:29:14;;;;;;;12.23;4.53;;;;;;;;;;5015445;27;20896;-76
2023/02/04 22:31:45;;;;;;;13.68;5.00;;;;;;;;;;4931994;28;20067;-75
2023/02/04 22:37:20;;;;;;;14.98;5.07;;;;;;;;;;5006815;27;20133;-72
2023/02/04 22:40:23;;;;;;;15.23;4.65;;;;;;;;;;4906860;28;20058;-76
2023/02/04 22:43:05;;;;;;;11.35;4.95;;;;;;;;;;4869172;29;20066;-73
